createdAt,value
2022-09-24T00:01:38.852Z,18.03
2022-09-24T00:04:11.543Z,18.04
2022-09-24T00:06:46.354Z,18.04
2022-09-24T00:09:15.957Z,18.05
2022-09-24T00:11:45.471Z,18.08
2022-09-24T00:14:12.921Z,18.08
2022-09-24T00:16:41.553Z,18.10
2022-09-24T00:19:09.117Z,18.11
2022-09-24T00:21:38.483Z,18.12
2022-09-24T00:24:33.768Z,18.13
2022-09-24T00:27:02.793Z,18.12
2022-09-24T00:29:33.874Z,18.14
2022-09-24T00:32:01.851Z,18.14
2022-09-24T00:34:29.641Z,18.14
2022-09-24T00:36:56.529Z,18.16
2022-09-24T00:39:23.429Z,18.16
2022-09-24T00:41:50.162Z,18.15
2022-09-24T00:44:41.115Z,18.16
2022-09-24T00:47:20.278Z,18.14
2022-09-24T00:49:49.594Z,18.14
2022-09-24T00:52:18.361Z,18.12
2022-09-24T00:54:45.943Z,18.12
2022-09-24T00:57:13.881Z,18.13
2022-09-24T00:59:42.539Z,18.13
2022-09-24T01:02:09.539Z,18.11
2022-09-24T01:04:36.289Z,18.09
2022-09-24T01:07:03.242Z,18.11
2022-09-24T01:09:30.547Z,18.10
2022-09-24T01:12:35.429Z,18.06
2022-09-24T01:15:21.759Z,18.01
2022-09-24T01:18:22.366Z,17.96
2022-09-24T01:21:30.728Z,17.91
2022-09-24T01:24:41.454Z,17.84
2022-09-24T01:27:21.939Z,17.79
2022-09-24T01:30:07.427Z,17.75
2022-09-24T01:32:57.219Z,17.71
2022-09-24T01:35:38.266Z,17.69
2022-09-24T01:38:22.045Z,17.67
2022-09-24T01:40:51.671Z,17.66
2022-09-24T01:43:25.503Z,17.65
2022-09-24T01:45:53.170Z,17.63
2022-09-24T01:48:22.066Z,17.63
2022-09-24T01:51:50.168Z,17.62
2022-09-24T01:54:26.191Z,17.56
2022-09-24T01:57:04.019Z,17.56
2022-09-24T01:59:49.825Z,17.56
2022-09-24T02:02:30.425Z,17.54
2022-09-24T02:05:16.521Z,17.53
2022-09-24T02:07:58.976Z,17.52
2022-09-24T02:10:32.395Z,17.51
2022-09-24T02:13:06.787Z,17.49
2022-09-24T02:15:40.003Z,17.45
2022-09-24T02:18:14.351Z,17.42
2022-09-24T02:20:43.958Z,17.39
2022-09-24T02:23:12.764Z,17.35
2022-09-24T02:25:43.590Z,17.32
2022-09-24T02:28:10.407Z,17.30
2022-09-24T02:30:47.598Z,17.29
2022-09-24T02:33:34.437Z,17.28
2022-09-24T02:36:01.811Z,17.27
2022-09-24T02:38:28.596Z,17.26
2022-09-24T02:40:56.639Z,17.25
2022-09-24T02:43:23.501Z,17.26
2022-09-24T02:45:50.249Z,17.28
2022-09-24T02:48:16.972Z,17.29
2022-09-24T02:50:43.681Z,17.29
2022-09-24T02:53:10.662Z,17.30
2022-09-24T02:55:37.416Z,17.31
2022-09-24T02:58:04.191Z,17.32
2022-09-24T03:00:30.924Z,17.34
2022-09-24T03:02:57.668Z,17.36
2022-09-24T03:05:24.611Z,17.39
2022-09-24T03:07:51.428Z,17.42
2022-09-24T03:10:18.172Z,17.47
2022-09-24T03:12:45.411Z,17.49
2022-09-24T03:15:12.178Z,17.51
2022-09-24T03:17:38.899Z,17.52
2022-09-24T03:20:06.526Z,17.55
2022-09-24T03:22:33.297Z,17.56
2022-09-24T03:24:59.997Z,17.57
2022-09-24T03:27:26.733Z,17.58
2022-09-24T03:30:12.200Z,17.58
2022-09-24T03:32:39.187Z,17.58
2022-09-24T03:35:06.297Z,17.56
2022-09-24T03:37:36.484Z,17.60
2022-09-24T03:40:06.902Z,17.60
2022-09-24T03:42:34.610Z,17.61
2022-09-24T03:45:01.668Z,17.61
2022-09-24T03:47:30.843Z,17.61
2022-09-24T03:49:58.007Z,17.61
2022-09-24T03:52:26.386Z,17.61
2022-09-24T03:54:53.097Z,17.61
2022-09-24T03:57:19.989Z,17.58
2022-09-24T03:59:47.130Z,17.56
2022-09-24T04:02:13.962Z,17.54
2022-09-24T04:04:40.687Z,17.52
2022-09-24T04:07:07.426Z,17.52
2022-09-24T04:09:34.150Z,17.49
2022-09-24T04:12:01.282Z,17.47
2022-09-24T04:14:28.009Z,17.46
2022-09-24T04:16:54.819Z,17.45
2022-09-24T04:19:21.580Z,17.41
2022-09-24T04:21:48.403Z,17.39
2022-09-24T04:24:15.223Z,17.37
2022-09-24T04:26:42.069Z,17.35
2022-09-24T04:29:09.251Z,17.34
2022-09-24T04:31:35.984Z,17.34
2022-09-24T04:34:02.883Z,17.33
2022-09-24T04:36:29.611Z,17.31
2022-09-24T04:38:57.103Z,17.30
2022-09-24T04:41:23.840Z,17.28
2022-09-24T04:43:51.299Z,17.24
2022-09-24T04:46:19.162Z,17.19
2022-09-24T04:48:46.017Z,17.15
2022-09-24T04:51:12.760Z,17.10
2022-09-24T04:53:39.699Z,17.07
2022-09-24T04:56:11.912Z,17.02
2022-09-24T04:58:39.767Z,16.99
2022-09-24T05:01:06.725Z,16.97
2022-09-24T05:03:33.482Z,16.95
2022-09-24T05:06:01.921Z,16.93
2022-09-24T05:08:28.716Z,16.95
2022-09-24T05:10:55.473Z,16.91
2022-09-24T05:13:22.717Z,16.93
2022-09-24T05:15:49.588Z,16.92
2022-09-24T05:18:16.491Z,16.91
2022-09-24T05:20:43.223Z,16.91
2022-09-24T05:23:10.099Z,16.91
2022-09-24T05:26:01.066Z,16.89
2022-09-24T05:28:28.092Z,16.88
2022-09-24T05:30:59.010Z,16.86
2022-09-24T05:33:26.666Z,16.87
2022-09-24T05:35:55.460Z,16.86
2022-09-24T05:38:22.433Z,16.86
2022-09-24T05:40:49.369Z,16.85
2022-09-24T05:43:19.325Z,16.87
2022-09-24T05:45:46.481Z,16.86
2022-09-24T05:48:13.290Z,16.87
2022-09-24T05:50:40.135Z,16.86
2022-09-24T05:53:06.894Z,16.86
2022-09-24T05:55:33.758Z,16.84
2022-09-24T05:58:10.503Z,16.83
2022-09-24T06:00:37.675Z,16.80
2022-09-24T06:03:15.302Z,16.81
2022-09-24T06:05:50.284Z,16.79
2022-09-24T06:08:19.661Z,16.81
2022-09-24T06:10:47.493Z,16.78
2022-09-24T06:13:20.801Z,16.81
2022-09-24T06:15:47.647Z,16.81
2022-09-24T06:18:14.490Z,16.83
2022-09-24T06:20:41.203Z,16.84
2022-09-24T06:23:07.919Z,16.88
2022-09-24T06:25:34.719Z,16.92
2022-09-24T06:28:04.434Z,16.98
2022-09-24T06:30:41.433Z,17.05
2022-09-24T06:33:12.338Z,17.10
2022-09-24T06:35:42.670Z,17.18
2022-09-24T06:38:17.167Z,17.26
2022-09-24T06:40:47.046Z,17.33
2022-09-24T06:43:14.664Z,17.39
2022-09-24T06:45:44.881Z,17.46
2022-09-24T06:48:14.376Z,17.54
2022-09-24T06:50:45.035Z,17.60
2022-09-24T06:53:12.246Z,17.67
2022-09-24T06:55:39.537Z,17.73
2022-09-24T06:58:09.930Z,17.81
2022-09-24T07:00:38.971Z,17.86
2022-09-24T07:03:07.390Z,17.92
2022-09-24T07:05:39.600Z,17.99
2022-09-24T07:08:09.529Z,18.02
2022-09-24T07:10:36.964Z,18.09
2022-09-24T07:13:03.791Z,18.13
2022-09-24T07:15:30.503Z,18.17
2022-09-24T07:17:57.528Z,18.20
2022-09-24T07:20:28.551Z,18.27
2022-09-24T07:22:58.759Z,18.33
2022-09-24T07:25:25.559Z,18.38
2022-09-24T07:27:52.466Z,18.47
2022-09-24T07:30:19.326Z,18.53
2022-09-24T07:32:46.125Z,18.60
2022-09-24T07:35:12.836Z,18.68
2022-09-24T07:37:39.608Z,18.77
2022-09-24T07:40:07.166Z,18.83
2022-09-24T07:42:34.329Z,18.91
2022-09-24T07:45:01.154Z,18.98
2022-09-24T07:47:27.982Z,19.05
2022-09-24T07:49:54.806Z,19.12
2022-09-24T07:52:21.657Z,19.19
2022-09-24T07:54:48.743Z,19.24
2022-09-24T07:57:15.552Z,19.33
2022-09-24T07:59:44.778Z,19.42
2022-09-24T08:02:16.994Z,19.53
2022-09-24T08:04:44.817Z,19.64
2022-09-24T08:07:13.262Z,19.78
2022-09-24T08:09:40.343Z,19.87
2022-09-24T08:12:19.050Z,19.97
2022-09-24T08:14:53.220Z,20.08
2022-09-24T08:17:20.937Z,20.16
2022-09-24T08:19:48.657Z,20.24
2022-09-24T08:22:16.216Z,20.33
2022-09-24T08:24:45.968Z,20.39
2022-09-24T08:27:16.998Z,20.43
2022-09-24T08:29:44.174Z,20.49
2022-09-24T08:32:11.090Z,20.56
2022-09-24T08:34:40.494Z,20.57
2022-09-24T08:37:10.359Z,20.63
2022-09-24T08:39:38.086Z,20.60
2022-09-24T08:42:13.727Z,20.63
2022-09-24T08:45:04.415Z,20.64
2022-09-24T08:47:45.536Z,20.67
2022-09-24T08:50:20.711Z,20.72
2022-09-24T08:53:14.988Z,20.75
2022-09-24T08:55:47.878Z,20.81
2022-09-24T08:58:17.711Z,20.85
2022-09-24T09:01:13.247Z,20.90
2022-09-24T09:03:52.358Z,20.96
2022-09-24T09:06:53.803Z,21.03
2022-09-24T09:09:25.758Z,21.11
2022-09-24T09:12:01.270Z,21.20
2022-09-24T09:14:42.430Z,21.31
2022-09-24T09:17:45.608Z,21.40
2022-09-24T09:20:31.495Z,21.44
2022-09-24T09:23:05.465Z,21.49
2022-09-24T09:25:36.752Z,21.57
2022-09-24T09:28:15.636Z,21.63
2022-09-24T09:31:27.558Z,21.66
2022-09-24T09:34:21.121Z,21.67
2022-09-24T09:37:29.185Z,21.72
2022-09-24T09:40:33.677Z,21.74
2022-09-24T09:43:04.373Z,21.78
2022-09-24T09:45:55.059Z,21.84
2022-09-24T09:48:28.065Z,21.90
2022-09-24T09:51:04.383Z,21.96
2022-09-24T09:53:33.174Z,21.99
2022-09-24T09:56:06.410Z,22.01
2022-09-24T09:58:47.334Z,22.06
2022-09-24T10:01:19.820Z,22.07
2022-09-24T10:03:49.819Z,22.07
2022-09-24T10:06:30.126Z,22.06
2022-09-24T10:09:22.210Z,22.03
2022-09-24T10:11:49.281Z,21.99
2022-09-24T10:14:21.590Z,21.96
2022-09-24T10:16:55.075Z,21.93
2022-09-24T10:19:25.950Z,21.88
2022-09-24T10:21:57.782Z,21.87
2022-09-24T10:24:27.420Z,21.86
2022-09-24T10:26:54.662Z,21.93
2022-09-24T10:29:46.113Z,22.15
2022-09-24T10:32:30.859Z,22.68
2022-09-24T10:35:05.879Z,23.18
2022-09-24T10:37:32.615Z,23.60
2022-09-24T10:40:15.334Z,23.91
2022-09-24T10:42:42.538Z,24.06
2022-09-24T10:45:15.736Z,24.09
2022-09-24T10:47:49.950Z,24.04
2022-09-24T10:51:00.942Z,23.88
2022-09-24T10:53:56.255Z,23.70
2022-09-24T10:56:28.975Z,23.57
2022-09-24T10:59:36.001Z,23.36
2022-09-24T11:02:55.502Z,23.14
2022-09-24T11:05:24.733Z,23.02
2022-09-24T11:08:10.747Z,22.84
2022-09-24T11:11:48.080Z,22.62
2022-09-24T11:14:58.590Z,22.43
2022-09-24T11:18:09.982Z,22.27
2022-09-24T11:20:59.703Z,22.17
2022-09-24T11:23:38.079Z,22.10
2022-09-24T11:26:43.458Z,22.01
2022-09-24T11:29:41.778Z,21.94
2022-09-24T11:32:54.596Z,21.86
2022-09-24T11:35:56.859Z,21.82
2022-09-24T11:39:08.381Z,21.81
2022-09-24T11:42:03.478Z,21.82
2022-09-24T11:45:15.655Z,21.81
2022-09-24T11:48:21.340Z,21.79
2022-09-24T11:51:22.938Z,21.78
2022-09-24T11:54:24.320Z,21.79
2022-09-24T11:57:18.892Z,21.79
2022-09-24T12:00:11.811Z,21.83
2022-09-24T12:03:14.137Z,21.87
2022-09-24T12:05:49.329Z,21.96
2022-09-24T12:08:27.696Z,22.01
2022-09-24T12:11:08.906Z,22.09
2022-09-24T12:13:46.896Z,22.22
2022-09-24T12:16:19.616Z,22.33
2022-09-24T12:19:19.037Z,22.42
2022-09-24T12:21:49.167Z,22.49
2022-09-24T12:25:05.274Z,22.59
2022-09-24T12:27:36.592Z,22.67
2022-09-24T12:30:57.619Z,22.71
2022-09-24T12:33:55.133Z,22.77
2022-09-24T12:36:56.980Z,22.83
2022-09-24T12:39:33.443Z,22.88
2022-09-24T12:42:07.247Z,22.91
2022-09-24T12:44:54.439Z,22.88
2022-09-24T12:47:30.300Z,22.88
2022-09-24T12:50:01.536Z,22.88
2022-09-24T12:52:43.837Z,22.83
2022-09-24T12:55:29.402Z,22.77
2022-09-24T12:58:02.006Z,22.75
2022-09-24T13:00:37.365Z,22.72
2022-09-24T13:03:06.255Z,22.67
2022-09-24T13:05:47.516Z,22.63
2022-09-24T13:08:17.287Z,22.59
2022-09-24T13:11:05.710Z,22.55
2022-09-24T13:13:44.591Z,22.49
2022-09-24T13:16:20.685Z,22.47
2022-09-24T13:19:02.322Z,22.46
2022-09-24T13:21:31.102Z,22.42
2022-09-24T13:23:58.480Z,22.38
2022-09-24T13:26:25.153Z,22.36
2022-09-24T13:29:05.645Z,22.32
2022-09-24T13:31:47.725Z,22.27
2022-09-24T13:34:27.685Z,22.24
2022-09-24T13:36:59.508Z,22.17
2022-09-24T13:39:45.351Z,22.10
2022-09-24T13:42:42.954Z,22.05
2022-09-24T13:45:20.935Z,22.03
2022-09-24T13:47:58.874Z,21.98
2022-09-24T13:50:33.278Z,21.96
2022-09-24T13:53:15.824Z,21.92
2022-09-24T13:56:00.173Z,21.83
2022-09-24T13:58:38.796Z,21.78
2022-09-24T14:01:13.269Z,21.72
2022-09-24T14:03:41.374Z,21.68
2022-09-24T14:06:21.814Z,21.61
2022-09-24T14:08:49.521Z,21.56
2022-09-24T14:11:21.416Z,21.50
2022-09-24T14:13:48.158Z,21.41
2022-09-24T14:16:20.475Z,21.34
2022-09-24T14:18:48.009Z,21.28
2022-09-24T14:21:35.519Z,21.24
2022-09-24T14:24:19.146Z,21.18
2022-09-24T14:27:00.659Z,21.13
2022-09-24T14:29:47.855Z,21.09
2022-09-24T14:32:35.006Z,21.04
2022-09-24T14:35:18.725Z,21.00
2022-09-24T14:37:54.938Z,20.97
2022-09-24T14:40:23.513Z,20.93
2022-09-24T14:42:56.411Z,20.89
2022-09-24T14:45:37.802Z,20.83
2022-09-24T14:48:20.655Z,20.78
2022-09-24T14:50:47.744Z,20.75
2022-09-24T14:53:34.626Z,20.68
2022-09-24T14:56:26.861Z,20.59
2022-09-24T14:58:53.648Z,20.53
2022-09-24T15:01:24.450Z,20.48
2022-09-24T15:04:16.121Z,20.42
2022-09-24T15:06:48.378Z,20.34
2022-09-24T15:09:27.213Z,20.29
2022-09-24T15:11:57.018Z,20.23
2022-09-24T15:14:32.293Z,20.19
2022-09-24T15:17:22.891Z,20.13
2022-09-24T15:19:54.271Z,20.09
2022-09-24T15:22:26.561Z,20.06
2022-09-24T15:25:01.654Z,20.06
2022-09-24T15:27:32.011Z,20.08
2022-09-24T15:30:02.070Z,20.07
2022-09-24T15:32:32.497Z,20.06
2022-09-24T15:34:59.754Z,20.02
2022-09-24T15:37:29.526Z,20.01
2022-09-24T15:40:08.845Z,19.99
2022-09-24T15:42:35.733Z,19.94
2022-09-24T15:45:02.467Z,19.89
2022-09-24T15:47:29.167Z,19.83
2022-09-24T15:49:55.925Z,19.76
2022-09-24T15:52:27.434Z,19.73
2022-09-24T15:55:02.762Z,19.69
2022-09-24T15:57:30.214Z,19.59
2022-09-24T15:59:56.989Z,19.58
2022-09-24T16:02:32.094Z,19.54
2022-09-24T16:05:03.481Z,19.51
2022-09-24T16:07:30.968Z,19.51
2022-09-24T16:09:57.814Z,19.47
2022-09-24T16:12:27.902Z,19.43
2022-09-24T16:14:58.854Z,19.41
2022-09-24T16:17:29.352Z,19.39
2022-09-24T16:19:56.142Z,19.38
2022-09-24T16:22:23.453Z,19.35
2022-09-24T16:24:50.263Z,19.33
2022-09-24T16:27:17.012Z,19.32
2022-09-24T16:29:43.715Z,19.28
2022-09-24T16:32:10.603Z,19.27
2022-09-24T16:34:37.347Z,19.29
2022-09-24T16:37:04.070Z,19.27
2022-09-24T16:39:31.408Z,19.26
2022-09-24T16:41:58.213Z,19.28
2022-09-24T16:44:25.009Z,19.27
2022-09-24T16:46:51.760Z,19.28
2022-09-24T16:49:19.446Z,19.30
2022-09-24T16:51:46.285Z,19.30
2022-09-24T16:54:13.700Z,19.33
2022-09-24T16:56:40.442Z,19.35
2022-09-24T16:59:07.221Z,19.35
2022-09-24T17:01:33.965Z,19.35
2022-09-24T17:04:01.023Z,19.36
2022-09-24T17:06:30.918Z,19.36
2022-09-24T17:09:16.802Z,19.32
2022-09-24T17:11:46.686Z,19.30
2022-09-24T17:14:13.470Z,19.27
2022-09-24T17:16:41.740Z,19.24
2022-09-24T17:19:10.591Z,19.22
2022-09-24T17:21:40.600Z,19.18
2022-09-24T17:24:08.578Z,19.12
2022-09-24T17:26:36.066Z,19.08
2022-09-24T17:29:02.898Z,19.03
2022-09-24T17:31:30.199Z,18.99
2022-09-24T17:34:03.902Z,18.94
2022-09-24T17:36:33.839Z,18.88
2022-09-24T17:39:01.174Z,18.84
2022-09-24T17:41:29.872Z,18.82
2022-09-24T17:44:00.752Z,18.78
2022-09-24T17:46:31.581Z,18.74
2022-09-24T17:49:00.562Z,18.68
2022-09-24T17:51:38.255Z,18.63
2022-09-24T17:54:15.750Z,18.60
2022-09-24T17:56:42.834Z,18.57
2022-09-24T17:59:13.054Z,18.54
2022-09-24T18:01:42.788Z,18.52
2022-09-24T18:04:16.619Z,18.51
2022-09-24T18:06:45.401Z,18.48
2022-09-24T18:09:14.318Z,18.47
2022-09-24T18:11:46.431Z,18.46
2022-09-24T18:14:17.397Z,18.46
2022-09-24T18:16:45.006Z,18.44
2022-09-24T18:19:15.613Z,18.42
2022-09-24T18:21:43.323Z,18.38
2022-09-24T18:24:10.543Z,18.37
2022-09-24T18:26:39.827Z,18.36
2022-09-24T18:29:15.646Z,18.34
2022-09-24T18:31:43.132Z,18.31
2022-09-24T18:34:15.135Z,18.29
2022-09-24T18:36:44.424Z,18.26
2022-09-24T18:39:16.645Z,18.25
2022-09-24T18:41:45.786Z,18.20
2022-09-24T18:44:12.808Z,18.17
2022-09-24T18:46:39.940Z,18.16
2022-09-24T18:49:06.889Z,18.13
2022-09-24T18:51:37.519Z,18.12
2022-09-24T18:54:08.294Z,18.09
2022-09-24T18:56:36.414Z,18.05
2022-09-24T18:59:15.898Z,18.06
2022-09-24T19:01:44.274Z,18.02
2022-09-24T19:04:13.852Z,18.01
2022-09-24T19:06:44.635Z,17.99
2022-09-24T19:09:14.226Z,17.96
2022-09-24T19:11:42.079Z,17.95
2022-09-24T19:14:12.076Z,17.91
2022-09-24T19:16:39.939Z,17.88
2022-09-24T19:19:07.038Z,17.82
2022-09-24T19:21:33.810Z,17.79
2022-09-24T19:24:00.735Z,17.72
2022-09-24T19:26:33.708Z,17.66
2022-09-24T19:29:01.200Z,17.61
2022-09-24T19:31:31.916Z,17.59
2022-09-24T19:34:03.097Z,17.55
2022-09-24T19:36:30.973Z,17.50
2022-09-24T19:38:57.818Z,17.49
2022-09-24T19:41:26.554Z,17.47
2022-09-24T19:43:56.816Z,17.47
2022-09-24T19:46:26.867Z,17.45
2022-09-24T19:48:56.501Z,17.44
2022-09-24T19:51:30.978Z,17.42
2022-09-24T19:54:02.240Z,17.41
2022-09-24T19:56:32.614Z,17.40
2022-09-24T19:59:01.413Z,17.38
2022-09-24T20:01:31.641Z,17.37
2022-09-24T20:04:02.209Z,17.36
2022-09-24T20:06:31.239Z,17.34
2022-09-24T20:08:59.226Z,17.36
2022-09-24T20:11:26.518Z,17.36
2022-09-24T20:13:56.101Z,17.38
2022-09-24T20:16:30.866Z,17.40
2022-09-24T20:18:58.048Z,17.42
2022-09-24T20:21:28.243Z,17.45
2022-09-24T20:23:57.962Z,17.47
2022-09-24T20:26:48.757Z,17.49
2022-09-24T20:29:16.068Z,17.49
2022-09-24T20:31:51.927Z,17.52
2022-09-24T20:34:34.169Z,17.51
2022-09-24T20:37:04.233Z,17.53
2022-09-24T20:39:32.081Z,17.53
2022-09-24T20:42:02.252Z,17.55
2022-09-24T20:44:30.501Z,17.56
2022-09-24T20:46:58.020Z,17.57
2022-09-24T20:49:25.189Z,17.57
2022-09-24T20:51:57.013Z,17.57
2022-09-24T20:54:25.839Z,17.57
2022-09-24T20:56:52.550Z,17.56
2022-09-24T20:59:19.344Z,17.56
2022-09-24T21:01:47.787Z,17.57
2022-09-24T21:04:14.778Z,17.57
2022-09-24T21:06:41.478Z,17.59
2022-09-24T21:09:08.496Z,17.59
2022-09-24T21:11:35.313Z,17.61
2022-09-24T21:14:02.922Z,17.62
2022-09-24T21:16:33.642Z,17.63
2022-09-24T21:19:02.802Z,17.62
2022-09-24T21:21:32.738Z,17.60
2022-09-24T21:24:01.212Z,17.59
2022-09-24T21:26:31.717Z,17.55
2022-09-24T21:29:02.883Z,17.54
2022-09-24T21:31:33.371Z,17.51
2022-09-24T21:34:00.724Z,17.51
2022-09-24T21:36:31.488Z,17.50
2022-09-24T21:39:05.828Z,17.49
2022-09-24T21:41:35.655Z,17.48
2022-09-24T21:44:03.128Z,17.47
2022-09-24T21:46:33.156Z,17.46
2022-09-24T21:49:01.723Z,17.45
2022-09-24T21:51:30.044Z,17.45
2022-09-24T21:54:07.329Z,17.46
2022-09-24T21:56:35.875Z,17.45
2022-09-24T21:59:26.826Z,17.46
2022-09-24T22:01:55.002Z,17.42
2022-09-24T22:04:22.373Z,17.42
2022-09-24T22:06:50.783Z,17.42
2022-09-24T22:09:18.783Z,17.41
2022-09-24T22:11:45.872Z,17.41
2022-09-24T22:14:13.679Z,17.38
2022-09-24T22:16:40.529Z,17.39
2022-09-24T22:19:09.236Z,17.38
2022-09-24T22:21:36.635Z,17.36
2022-09-24T22:24:04.433Z,17.34
2022-09-24T22:26:31.218Z,17.33
2022-09-24T22:28:59.304Z,17.33
2022-09-24T22:31:26.921Z,17.33
2022-09-24T22:34:12.510Z,17.34
2022-09-24T22:36:39.592Z,17.31
2022-09-24T22:39:08.050Z,17.33
2022-09-24T22:41:38.632Z,17.34
2022-09-24T22:44:07.343Z,17.34
2022-09-24T22:46:36.335Z,17.35
2022-09-24T22:49:05.561Z,17.36
2022-09-24T22:51:33.573Z,17.37
2022-09-24T22:54:00.486Z,17.37
2022-09-24T22:56:28.558Z,17.40
2022-09-24T22:59:01.379Z,17.41
2022-09-24T23:01:34.896Z,17.41
2022-09-24T23:04:02.748Z,17.41
2022-09-24T23:06:31.317Z,17.42
2022-09-24T23:08:58.308Z,17.43
2022-09-24T23:11:31.794Z,17.45
2022-09-24T23:14:02.524Z,17.45
2022-09-24T23:16:32.835Z,17.46
2022-09-24T23:19:03.988Z,17.47
2022-09-24T23:21:33.344Z,17.47
2022-09-24T23:24:19.035Z,17.46
2022-09-24T23:26:46.580Z,17.47
2022-09-24T23:29:14.970Z,17.49
2022-09-24T23:31:42.348Z,17.49
2022-09-24T23:34:12.291Z,17.51
2022-09-24T23:36:39.088Z,17.52
2022-09-24T23:39:06.095Z,17.52
2022-09-24T23:41:32.946Z,17.53
2022-09-24T23:44:00.496Z,17.54
2022-09-24T23:46:27.668Z,17.53
2022-09-24T23:48:55.813Z,17.54
2022-09-24T23:51:22.980Z,17.55
2022-09-24T23:53:49.710Z,17.55
2022-09-24T23:56:16.557Z,17.55
2022-09-24T23:58:43.701Z,17.54
